Time;durP1;ratioP1;P1;durP2;ratioP2;P2;SDS_P1;SDS_P2;PMS_P1;PMS_P2;Temp;Humidity;BMP_temperature;BMP_pressure;BME280_temperature;BME280_humidity;BME280_pressure;Samples;Min_cycle;Max_cycle;Signal;HPM_P1;HPM_P2
2022/05/13 00:01:05;;;;;;;5.50;1.67;;;;;;;;;;5009700;28;20242;-69
2022/05/13 00:03:31;;;;;;;5.30;1.73;;;;;;;;;;5014697;28;20278;-68
2022/05/13 00:05:58;;;;;;;5.77;1.40;;;;;;;;;;5019650;28;20270;-68
2022/05/13 00:08:25;;;;;;;4.37;1.70;;;;;;;;;;5026051;28;20198;-68
2022/05/13 00:10:52;;;;;;;5.33;1.50;;;;;;;;;;5023716;28;20187;-69
2022/05/13 00:13:18;;;;;;;4.17;1.40;;;;;;;;;;5027336;28;20302;-68
2022/05/13 00:15:46;;;;;;;4.23;1.40;;;;;;;;;;5010191;28;20209;-69
2022/05/13 00:18:13;;;;;;;3.37;1.50;;;;;;;;;;5028078;28;20571;-68
2022/05/13 00:20:40;;;;;;;4.70;1.57;;;;;;;;;;5027846;28;20195;-68
2022/05/13 00:23:07;;;;;;;4.80;1.77;;;;;;;;;;5028628;28;20226;-69
2022/05/13 00:25:35;;;;;;;6.43;1.80;;;;;;;;;;4993668;28;20246;-68
2022/05/13 00:28:03;;;;;;;2.13;1.27;;;;;;;;;;5013308;28;21774;-69
2022/05/13 00:30:30;;;;;;;6.37;1.60;;;;;;;;;;5015579;28;20582;-68
2022/05/13 00:32:58;;;;;;;2.87;1.50;;;;;;;;;;5010426;28;20188;-68
2022/05/13 00:35:25;;;;;;;5.20;1.40;;;;;;;;;;5023156;28;20305;-68
2022/05/13 00:37:52;;;;;;;4.17;1.40;;;;;;;;;;5000476;28;20315;-68
2022/05/13 00:40:20;;;;;;;6.43;1.87;;;;;;;;;;5022173;28;20251;-68
2022/05/13 00:42:47;;;;;;;3.97;1.43;;;;;;;;;;5028792;28;20198;-68
2022/05/13 00:45:14;;;;;;;5.23;1.80;;;;;;;;;;5028334;28;20195;-68
2022/05/13 00:47:41;;;;;;;5.97;1.77;;;;;;;;;;5028412;28;20207;-68
2022/05/13 00:50:08;;;;;;;6.57;1.53;;;;;;;;;;5028800;28;20195;-68
2022/05/13 00:52:36;;;;;;;5.93;1.70;;;;;;;;;;5011095;28;20188;-68
2022/05/13 00:55:25;;;;;;;5.23;1.30;;;;;;;;;;5028176;28;20186;-68
2022/05/13 00:57:52;;;;;;;3.60;1.50;;;;;;;;;;5011087;28;20199;-68
2022/05/13 01:00:36;;;;;;;6.10;1.53;;;;;;;;;;5028038;28;20722;-68
2022/05/13 01:03:03;;;;;;;6.50;1.43;;;;;;;;;;5009881;28;20197;-69
2022/05/13 01:05:49;;;;;;;4.57;1.60;;;;;;;;;;4999811;28;20175;-68
2022/05/13 01:08:18;;;;;;;3.97;1.30;;;;;;;;;;5026527;28;20935;-68
2022/05/13 01:10:45;;;;;;;3.90;1.40;;;;;;;;;;5028258;28;20650;-68
2022/05/13 01:13:12;;;;;;;6.50;1.37;;;;;;;;;;5010573;28;20282;-68
2022/05/13 01:15:40;;;;;;;4.80;1.63;;;;;;;;;;5027781;28;20191;-68
2022/05/13 01:18:07;;;;;;;7.70;1.80;;;;;;;;;;4993763;28;20211;-69
2022/05/13 01:20:46;;;;;;;8.07;1.53;;;;;;;;;;5012809;28;20201;-68
2022/05/13 01:23:32;;;;;;;5.17;1.50;;;;;;;;;;5027870;28;20186;-68
2022/05/13 01:26:01;;;;;;;3.67;1.47;;;;;;;;;;5027401;28;20251;-68
2022/05/13 01:28:29;;;;;;;5.23;1.50;;;;;;;;;;5027437;28;20221;-68
2022/05/13 01:30:57;;;;;;;3.87;1.60;;;;;;;;;;5027466;28;20184;-68
2022/05/13 01:33:25;;;;;;;5.27;1.90;;;;;;;;;;5027734;28;20206;-68
2022/05/13 01:35:53;;;;;;;3.47;1.50;;;;;;;;;;5027105;28;20246;-68
2022/05/13 01:38:21;;;;;;;3.93;1.20;;;;;;;;;;5025689;28;20241;-68
2022/05/13 01:40:48;;;;;;;4.30;1.33;;;;;;;;;;5026726;28;20675;-68
2022/05/13 01:43:14;;;;;;;4.17;1.50;;;;;;;;;;5027374;28;20192;-68
2022/05/13 01:45:58;;;;;;;5.67;1.57;;;;;;;;;;5027497;28;20880;-68
2022/05/13 01:48:25;;;;;;;5.57;1.50;;;;;;;;;;5025532;28;20559;-68
2022/05/13 01:51:10;;;;;;;5.40;1.37;;;;;;;;;;5026806;28;20185;-68
2022/05/13 01:53:36;;;;;;;5.23;1.53;;;;;;;;;;5025887;28;20243;-68
2022/05/13 01:56:03;;;;;;;3.37;1.30;;;;;;;;;;5027026;28;20279;-68
2022/05/13 01:58:33;;;;;;;4.77;1.70;;;;;;;;;;5027017;28;20219;-68
2022/05/13 02:00:59;;;;;;;5.23;1.50;;;;;;;;;;5026613;28;20205;-68
2022/05/13 02:03:44;;;;;;;6.40;1.63;;;;;;;;;;5027504;28;20307;-68
2022/05/13 02:06:12;;;;;;;2.50;1.20;;;;;;;;;;5012863;28;20290;-68
2022/05/13 02:08:39;;;;;;;4.67;2.07;;;;;;;;;;5028523;28;20226;-68
2022/05/13 02:11:05;;;;;;;3.53;1.43;;;;;;;;;;5013418;28;20543;-68
2022/05/13 02:13:33;;;;;;;4.27;1.50;;;;;;;;;;5026242;28;20219;-68
2022/05/13 02:16:00;;;;;;;4.93;1.70;;;;;;;;;;5027022;28;20219;-68
2022/05/13 02:18:27;;;;;;;5.40;1.33;;;;;;;;;;5027805;28;20187;-68
2022/05/13 02:20:55;;;;;;;4.50;1.50;;;;;;;;;;5027195;28;20191;-68
2022/05/13 02:23:22;;;;;;;6.50;1.70;;;;;;;;;;5027201;28;20183;-68
2022/05/13 02:25:49;;;;;;;5.17;1.57;;;;;;;;;;5026266;28;20214;-68
2022/05/13 02:28:15;;;;;;;3.97;1.90;;;;;;;;;;5010548;28;20207;-68
2022/05/13 02:30:42;;;;;;;3.27;1.50;;;;;;;;;;5026873;28;20183;-68
2022/05/13 02:33:09;;;;;;;3.60;1.47;;;;;;;;;;5026578;28;20263;-67
2022/05/13 02:35:53;;;;;;;3.63;1.40;;;;;;;;;;5026979;28;20646;-67
2022/05/13 02:38:19;;;;;;;4.03;1.60;;;;;;;;;;5024689;28;20237;-67
2022/05/13 02:43:31;;;;;;;5.00;1.90;;;;;;;;;;5026972;28;20192;-67
2022/05/13 02:45:58;;;;;;;4.10;1.60;;;;;;;;;;5025171;28;20275;-67
2022/05/13 02:48:25;;;;;;;7.00;1.70;;;;;;;;;;5025318;28;20239;-67
2022/05/13 02:50:51;;;;;;;5.77;1.73;;;;;;;;;;5025518;28;20188;-67
2022/05/13 02:53:18;;;;;;;3.83;1.40;;;;;;;;;;5025412;28;20188;-67
2022/05/13 02:55:45;;;;;;;4.10;1.47;;;;;;;;;;5025382;28;20190;-67
2022/05/13 02:58:29;;;;;;;4.00;1.53;;;;;;;;;;5026313;28;20523;-68
2022/05/13 03:00:56;;;;;;;5.77;1.60;;;;;;;;;;5026223;28;20742;-67
2022/05/13 03:03:23;;;;;;;2.87;1.20;;;;;;;;;;5031131;28;20195;-67
2022/05/13 03:05:49;;;;;;;2.37;1.20;;;;;;;;;;5029890;28;20194;-67
2022/05/13 03:08:16;;;;;;;5.00;1.53;;;;;;;;;;5023509;28;20225;-68
2022/05/13 03:10:48;;;;;;;3.73;1.30;;;;;;;;;;5023224;28;20249;-68
2022/05/13 03:13:16;;;;;;;6.53;1.00;;;;;;;;;;5006448;28;20195;-68
2022/05/13 03:15:43;;;;;;;4.70;1.40;;;;;;;;;;5023846;28;20187;-68
2022/05/13 03:18:10;;;;;;;3.93;1.40;;;;;;;;;;5022887;28;20194;-69
2022/05/13 03:20:37;;;;;;;4.90;1.43;;;;;;;;;;5023354;28;20305;-68
2022/05/13 03:23:05;;;;;;;4.00;1.27;;;;;;;;;;5023742;28;20205;-68
2022/05/13 03:25:32;;;;;;;3.57;1.03;;;;;;;;;;5018448;28;20198;-68
2022/05/13 03:27:59;;;;;;;5.23;1.30;;;;;;;;;;5023932;28;20583;-68
2022/05/13 03:30:26;;;;;;;3.33;1.20;;;;;;;;;;5024373;28;20954;-68
2022/05/13 03:32:54;;;;;;;3.83;1.33;;;;;;;;;;5005848;28;20211;-68
2022/05/13 03:35:21;;;;;;;2.97;1.27;;;;;;;;;;5001836;28;20198;-69
2022/05/13 03:37:47;;;;;;;2.63;1.00;;;;;;;;;;5021888;28;20234;-68
2022/05/13 03:40:15;;;;;;;4.37;1.47;;;;;;;;;;5023758;28;20210;-69
2022/05/13 03:42:42;;;;;;;2.70;1.20;;;;;;;;;;5025044;28;20241;-68
2022/05/13 03:45:10;;;;;;;3.03;1.03;;;;;;;;;;5006543;28;20273;-68
2022/05/13 03:47:36;;;;;;;2.47;1.07;;;;;;;;;;5023158;28;20536;-68
2022/05/13 03:50:21;;;;;;;6.53;1.20;;;;;;;;;;5008962;28;20183;-69
2022/05/13 03:52:47;;;;;;;4.87;1.37;;;;;;;;;;5023864;28;20188;-68
2022/05/13 03:55:14;;;;;;;2.63;1.20;;;;;;;;;;5023250;28;20265;-68
2022/05/13 03:57:41;;;;;;;4.70;1.40;;;;;;;;;;4989448;28;20191;-69
2022/05/13 04:00:09;;;;;;;3.43;1.10;;;;;;;;;;5023065;28;20192;-67
2022/05/13 04:02:37;;;;;;;3.67;1.27;;;;;;;;;;5006284;28;20754;-67
2022/05/13 04:10:37;;;;;;;3.97;1.20;;;;;;;;;;5022538;28;20242;-67
2022/05/13 04:16:06;;;;;;;3.50;1.13;;;;;;;;;;5020618;28;20208;-68
2022/05/13 04:18:36;;;;;;;4.83;1.20;;;;;;;;;;5022833;28;20294;-68
2022/05/13 04:21:22;;;;;;;5.30;1.10;;;;;;;;;;5021321;28;20531;-68
2022/05/13 04:23:50;;;;;;;2.30;0.93;;;;;;;;;;5023616;28;20868;-67
2022/05/13 04:26:17;;;;;;;4.90;1.10;;;;;;;;;;5023485;28;20215;-68
2022/05/13 04:28:44;;;;;;;4.47;1.40;;;;;;;;;;5022094;28;20315;-68
2022/05/13 04:31:11;;;;;;;3.63;1.10;;;;;;;;;;5022313;28;20191;-67
2022/05/13 04:33:39;;;;;;;3.30;1.20;;;;;;;;;;5024513;28;20222;-67
2022/05/13 04:36:05;;;;;;;3.63;1.20;;;;;;;;;;5025141;28;20249;-71
2022/05/13 04:38:32;;;;;;;6.27;1.27;;;;;;;;;;5017844;28;20223;-68
2022/05/13 04:43:49;;;;;;;5.03;1.13;;;;;;;;;;5003307;28;20230;-68
2022/05/13 04:46:17;;;;;;;3.73;1.30;;;;;;;;;;5024659;28;20205;-69
2022/05/13 04:48:46;;;;;;;4.53;1.47;;;;;;;;;;5015497;28;20260;-68
2022/05/13 04:51:13;;;;;;;2.57;1.23;;;;;;;;;;5033739;28;20187;-68
2022/05/13 04:53:40;;;;;;;2.50;1.20;;;;;;;;;;5010979;28;20276;-68
2022/05/13 04:56:07;;;;;;;6.90;1.30;;;;;;;;;;5029047;28;20193;-68
2022/05/13 04:58:34;;;;;;;4.03;1.20;;;;;;;;;;5029222;28;20201;-68
2022/05/13 05:01:01;;;;;;;3.97;1.30;;;;;;;;;;5007006;28;20656;-67
2022/05/13 05:03:29;;;;;;;2.90;1.20;;;;;;;;;;5010261;28;20203;-68
2022/05/13 05:05:56;;;;;;;3.37;1.00;;;;;;;;;;5028884;28;20753;-68
2022/05/13 05:08:23;;;;;;;2.77;1.00;;;;;;;;;;5028848;28;20207;-67
2022/05/13 05:10:50;;;;;;;5.00;1.20;;;;;;;;;;5020738;28;20188;-68
2022/05/13 05:13:18;;;;;;;5.83;1.10;;;;;;;;;;5023776;28;20896;-67
2022/05/13 05:15:45;;;;;;;5.77;1.20;;;;;;;;;;5023180;28;20309;-68
2022/05/13 05:18:13;;;;;;;4.00;1.10;;;;;;;;;;5024617;28;20200;-68
2022/05/13 05:20:40;;;;;;;3.67;1.43;;;;;;;;;;5015523;28;20206;-67
2022/05/13 05:23:14;;;;;;;2.13;1.07;;;;;;;;;;5013824;28;20199;-67
2022/05/13 05:25:41;;;;;;;4.63;1.10;;;;;;;;;;5023433;28;20179;-68
2022/05/13 05:28:08;;;;;;;4.03;1.40;;;;;;;;;;5022479;28;20219;-68
2022/05/13 05:30:35;;;;;;;5.37;1.30;;;;;;;;;;5022060;28;20261;-68
2022/05/13 05:33:02;;;;;;;4.93;1.43;;;;;;;;;;5005198;28;20195;-67
2022/05/13 05:35:29;;;;;;;4.73;1.40;;;;;;;;;;5035185;28;20270;-67
2022/05/13 05:37:55;;;;;;;5.53;1.33;;;;;;;;;;5027126;28;20223;-67
2022/05/13 05:40:22;;;;;;;3.63;1.50;;;;;;;;;;5041780;28;20179;-67
2022/05/13 05:42:49;;;;;;;7.37;1.50;;;;;;;;;;5048298;28;20187;-67
2022/05/13 05:45:16;;;;;;;2.17;1.00;;;;;;;;;;5048807;28;20198;-67
2022/05/13 05:47:42;;;;;;;7.07;1.37;;;;;;;;;;5030043;28;20205;-67
2022/05/13 05:50:10;;;;;;;5.90;1.23;;;;;;;;;;5015903;28;20210;-68
2022/05/13 05:52:38;;;;;;;9.00;1.10;;;;;;;;;;5020139;28;20188;-69
2022/05/13 05:58:01;;;;;;;5.63;1.30;;;;;;;;;;5026511;28;20197;-67
2022/05/13 06:00:49;;;;;;;4.50;0.93;;;;;;;;;;5022016;28;20206;-67
2022/05/13 06:03:16;;;;;;;5.57;1.23;;;;;;;;;;5004888;28;20195;-66
2022/05/13 06:05:44;;;;;;;3.80;1.30;;;;;;;;;;5022936;28;20830;-65
2022/05/13 06:08:11;;;;;;;3.73;1.10;;;;;;;;;;5020921;28;20682;-68
2022/05/13 06:10:38;;;;;;;5.87;1.30;;;;;;;;;;5020462;28;21008;-66
2022/05/13 06:13:06;;;;;;;2.93;0.93;;;;;;;;;;5024521;28;20638;-68
2022/05/13 06:15:33;;;;;;;5.37;1.00;;;;;;;;;;5028191;28;20191;-65
2022/05/13 06:18:00;;;;;;;8.17;1.20;;;;;;;;;;5006534;28;20715;-66
2022/05/13 06:20:28;;;;;;;2.60;0.90;;;;;;;;;;5008158;28;20207;-66
2022/05/13 06:23:12;;;;;;;3.20;0.83;;;;;;;;;;5008009;28;20187;-67
2022/05/13 06:25:39;;;;;;;6.43;1.17;;;;;;;;;;5008216;28;20195;-66
2022/05/13 06:28:06;;;;;;;3.57;1.10;;;;;;;;;;5008029;28;20212;-66
2022/05/13 06:30:33;;;;;;;1.63;0.70;;;;;;;;;;5008723;28;20200;-66
2022/05/13 06:33:00;;;;;;;3.87;1.00;;;;;;;;;;5008120;28;20188;-66
2022/05/13 06:35:27;;;;;;;4.93;0.90;;;;;;;;;;5011127;28;20650;-67
2022/05/13 06:37:54;;;;;;;5.70;1.03;;;;;;;;;;5012006;28;20251;-66
2022/05/13 06:40:22;;;;;;;7.73;1.30;;;;;;;;;;5007405;28;20585;-67
2022/05/13 06:42:49;;;;;;;4.03;1.30;;;;;;;;;;5031714;28;20187;-67
2022/05/13 06:45:16;;;;;;;3.17;1.10;;;;;;;;;;5032157;28;20195;-67
2022/05/13 06:47:42;;;;;;;4.77;1.20;;;;;;;;;;5031573;28;20191;-67
2022/05/13 06:50:10;;;;;;;4.67;1.20;;;;;;;;;;5031909;28;20245;-67
2022/05/13 06:52:38;;;;;;;3.07;1.30;;;;;;;;;;5031799;28;20192;-67
2022/05/13 06:55:07;;;;;;;4.77;1.17;;;;;;;;;;5031633;28;20908;-67
2022/05/13 06:57:34;;;;;;;5.27;1.17;;;;;;;;;;5032006;28;20249;-65
2022/05/13 07:00:01;;;;;;;3.23;1.00;;;;;;;;;;5031593;28;20191;-66
2022/05/13 07:02:29;;;;;;;5.33;1.17;;;;;;;;;;5031623;28;20187;-66
2022/05/13 07:04:56;;;;;;;3.67;0.90;;;;;;;;;;5014034;28;20223;-66
2022/05/13 07:07:22;;;;;;;6.13;0.90;;;;;;;;;;5013169;28;20226;-66
2022/05/13 07:09:49;;;;;;;5.77;1.03;;;;;;;;;;5031092;28;20211;-66
2022/05/13 07:12:16;;;;;;;3.97;1.10;;;;;;;;;;5031412;28;20208;-67
2022/05/13 07:14:42;;;;;;;5.53;1.20;;;;;;;;;;5030916;28;20586;-66
2022/05/13 07:17:09;;;;;;;4.90;0.90;;;;;;;;;;5031065;28;20199;-66
2022/05/13 07:19:36;;;;;;;2.17;0.93;;;;;;;;;;5031322;28;20196;-66
2022/05/13 07:22:03;;;;;;;4.37;1.00;;;;;;;;;;5012960;28;20686;-66
2022/05/13 07:24:30;;;;;;;2.23;0.90;;;;;;;;;;5031051;28;20697;-67
2022/05/13 07:26:58;;;;;;;5.43;1.10;;;;;;;;;;5031030;28;20191;-66
2022/05/13 07:29:24;;;;;;;4.53;1.30;;;;;;;;;;5030939;28;20220;-66
2022/05/13 07:31:51;;;;;;;3.27;1.10;;;;;;;;;;5030894;28;20256;-66
2022/05/13 07:34:20;;;;;;;2.67;1.20;;;;;;;;;;5030861;28;20210;-66
2022/05/13 07:36:46;;;;;;;2.73;1.00;;;;;;;;;;5031332;28;20219;-67
2022/05/13 07:41:58;;;;;;;1.90;0.80;;;;;;;;;;5030654;28;20195;-66
2022/05/13 07:44:25;;;;;;;4.23;0.97;;;;;;;;;;5030833;28;20194;-66
2022/05/13 07:46:52;;;;;;;4.80;0.93;;;;;;;;;;5030064;28;20191;-66
2022/05/13 07:49:39;;;;;;;4.10;1.00;;;;;;;;;;5030705;28;20221;-67
2022/05/13 07:52:06;;;;;;;4.03;1.00;;;;;;;;;;5030434;28;20295;-66
2022/05/13 07:54:51;;;;;;;3.70;0.93;;;;;;;;;;5030496;28;20172;-65
2022/05/13 07:57:18;;;;;;;3.77;0.90;;;;;;;;;;5030662;28;20270;-66
2022/05/13 08:02:48;;;;;;;3.70;0.80;;;;;;;;;;5030391;28;20226;-66
2022/05/13 08:05:14;;;;;;;4.20;1.07;;;;;;;;;;5030576;28;20204;-66
2022/05/13 08:07:41;;;;;;;2.70;0.80;;;;;;;;;;5029975;28;20203;-66
2022/05/13 08:10:08;;;;;;;1.30;0.70;;;;;;;;;;5030436;28;20215;-66
2022/05/13 08:12:35;;;;;;;1.70;0.70;;;;;;;;;;5030794;28;20211;-66
2022/05/13 08:15:02;;;;;;;2.87;0.87;;;;;;;;;;5030387;28;20192;-67
2022/05/13 08:17:35;;;;;;;2.27;0.70;;;;;;;;;;5030209;28;20188;-67
2022/05/13 08:20:02;;;;;;;3.57;0.90;;;;;;;;;;5030025;28;20189;-67
2022/05/13 08:22:29;;;;;;;2.97;0.90;;;;;;;;;;5029862;28;20278;-67
2022/05/13 08:24:55;;;;;;;3.40;0.80;;;;;;;;;;5012872;28;20275;-67
2022/05/13 08:27:22;;;;;;;2.60;0.83;;;;;;;;;;5029586;28;20218;-66
2022/05/13 08:29:49;;;;;;;2.63;0.90;;;;;;;;;;5030033;28;20211;-66
2022/05/13 08:32:16;;;;;;;3.00;0.70;;;;;;;;;;5030080;28;20215;-67
2022/05/13 08:34:43;;;;;;;4.00;0.90;;;;;;;;;;5029657;28;20559;-67
2022/05/13 08:37:30;;;;;;;3.37;0.90;;;;;;;;;;5029582;28;20215;-67
2022/05/13 08:40:00;;;;;;;2.77;0.87;;;;;;;;;;5038273;28;20179;-67
2022/05/13 08:42:41;;;;;;;7.17;1.00;;;;;;;;;;5049813;28;20250;-67
2022/05/13 08:45:08;;;;;;;3.30;1.20;;;;;;;;;;5031783;28;20190;-67
2022/05/13 08:47:45;;;;;;;1.73;0.60;;;;;;;;;;5031861;28;20293;-67
2022/05/13 08:50:13;;;;;;;3.53;0.87;;;;;;;;;;5049299;28;20293;-67
2022/05/13 08:53:08;;;;;;;1.63;0.70;;;;;;;;;;5031567;28;20219;-67
2022/05/13 08:55:42;;;;;;;3.33;0.83;;;;;;;;;;5049615;28;20194;-66
2022/05/13 08:58:14;;;;;;;3.13;0.87;;;;;;;;;;5048196;28;20191;-67
2022/05/13 09:00:45;;;;;;;2.60;0.70;;;;;;;;;;5031428;28;20209;-66
2022/05/13 09:03:20;;;;;;;1.57;0.60;;;;;;;;;;5049611;28;20183;-66
2022/05/13 09:05:53;;;;;;;4.43;1.10;;;;;;;;;;5049007;28;20273;-66
2022/05/13 09:08:20;;;;;;;1.60;0.70;;;;;;;;;;5049520;28;20550;-66
2022/05/13 09:10:56;;;;;;;3.93;0.90;;;;;;;;;;5049038;28;20210;-67
2022/05/13 09:13:26;;;;;;;3.40;0.80;;;;;;;;;;5030933;28;20201;-67
2022/05/13 09:15:55;;;;;;;4.87;0.90;;;;;;;;;;5049091;28;20171;-67
2022/05/13 09:18:40;;;;;;;1.93;0.80;;;;;;;;;;5048865;28;20217;-67
2022/05/13 09:21:12;;;;;;;4.10;0.80;;;;;;;;;;5048494;28;20273;-66
2022/05/13 09:23:39;;;;;;;7.57;1.00;;;;;;;;;;5048675;28;21054;-66
2022/05/13 09:26:13;;;;;;;5.30;0.90;;;;;;;;;;5048827;28;20205;-66
2022/05/13 09:28:58;;;;;;;5.30;1.00;;;;;;;;;;5048374;28;20217;-66
2022/05/13 09:31:29;;;;;;;1.57;0.70;;;;;;;;;;5048655;28;20638;-66
2022/05/13 09:34:13;;;;;;;3.10;1.10;;;;;;;;;;5048378;28;20194;-67
2022/05/13 09:36:40;;;;;;;8.30;1.43;;;;;;;;;;5048521;28;20210;-67
2022/05/13 09:39:23;;;;;;;2.23;0.73;;;;;;;;;;5044633;28;20215;-67
2022/05/13 09:41:52;;;;;;;3.80;0.90;;;;;;;;;;5028483;28;20195;-67
2022/05/13 09:44:25;;;;;;;2.90;0.80;;;;;;;;;;5028349;28;20685;-67
2022/05/13 09:47:13;;;;;;;4.53;1.10;;;;;;;;;;5028502;28;20207;-66
2022/05/13 09:49:57;;;;;;;2.87;0.80;;;;;;;;;;5028288;28;20206;-66
2022/05/13 09:52:34;;;;;;;2.93;0.90;;;;;;;;;;5026660;28;20188;-67
2022/05/13 09:55:24;;;;;;;3.83;0.77;;;;;;;;;;5028080;28;20202;-67
2022/05/13 09:57:51;;;;;;;2.27;0.70;;;;;;;;;;5020797;28;20239;-66
2022/05/13 10:00:22;;;;;;;4.83;1.07;;;;;;;;;;5028322;28;20183;-66
2022/05/13 10:02:49;;;;;;;3.27;1.30;;;;;;;;;;5028038;28;20532;-67
2022/05/13 10:05:16;;;;;;;3.67;1.17;;;;;;;;;;5027031;28;20614;-67
2022/05/13 10:07:53;;;;;;;5.20;1.00;;;;;;;;;;5027981;28;20228;-67
2022/05/13 10:16:01;;;;;;;4.90;0.90;;;;;;;;;;5026918;28;20610;-67
2022/05/13 10:18:29;;;;;;;7.23;1.33;;;;;;;;;;5028331;28;20172;-67
2022/05/13 10:21:06;;;;;;;2.50;1.20;;;;;;;;;;5010379;28;20199;-67
2022/05/13 10:23:36;;;;;;;2.97;0.97;;;;;;;;;;5028159;28;20199;-68
2022/05/13 10:26:22;;;;;;;3.57;0.80;;;;;;;;;;5026559;28;20636;-67
2022/05/13 10:28:49;;;;;;;2.50;1.30;;;;;;;;;;5026590;28;20733;-67
2022/05/13 10:31:17;;;;;;;4.03;1.13;;;;;;;;;;5028036;28;20187;-66
2022/05/13 10:33:47;;;;;;;6.53;1.13;;;;;;;;;;5026722;28;20215;-66
2022/05/13 10:36:14;;;;;;;4.10;0.90;;;;;;;;;;5026831;28;20211;-66
2022/05/13 10:38:47;;;;;;;2.23;0.80;;;;;;;;;;5010173;28;20227;-65
2022/05/13 10:41:18;;;;;;;3.37;0.97;;;;;;;;;;5008274;28;20303;-66
2022/05/13 10:43:59;;;;;;;2.50;1.00;;;;;;;;;;5008125;28;20614;-66
2022/05/13 10:46:31;;;;;;;7.20;1.17;;;;;;;;;;4990653;28;21017;-67
2022/05/13 10:49:18;;;;;;;3.87;0.90;;;;;;;;;;5008571;28;20247;-66
2022/05/13 10:51:47;;;;;;;2.27;0.80;;;;;;;;;;5008202;28;20632;-67
2022/05/13 10:54:17;;;;;;;3.70;1.50;;;;;;;;;;4990936;28;20291;-66
2022/05/13 10:56:44;;;;;;;2.80;1.17;;;;;;;;;;5007802;28;20202;-66
2022/05/13 10:59:26;;;;;;;3.30;1.30;;;;;;;;;;5007963;28;20267;-67
2022/05/13 11:01:53;;;;;;;3.43;1.20;;;;;;;;;;5008088;28;20200;-67
2022/05/13 11:04:23;;;;;;;2.87;1.10;;;;;;;;;;5007596;28;20930;-67
2022/05/13 11:06:50;;;;;;;5.00;1.10;;;;;;;;;;5007828;28;20198;-67
2022/05/13 11:09:40;;;;;;;4.73;1.10;;;;;;;;;;5008390;28;20565;-67
2022/05/13 11:12:10;;;;;;;3.13;0.93;;;;;;;;;;5007911;28;20196;-67
2022/05/13 11:14:58;;;;;;;3.50;1.20;;;;;;;;;;5008224;28;20639;-68
2022/05/13 11:17:31;;;;;;;4.83;1.20;;;;;;;;;;4990460;28;20200;-67
2022/05/13 11:20:10;;;;;;;3.27;0.87;;;;;;;;;;4990826;28;20215;-67
2022/05/13 11:22:46;;;;;;;2.50;0.90;;;;;;;;;;5010937;28;20562;-67
2022/05/13 11:28:21;;;;;;;2.77;0.97;;;;;;;;;;5011437;28;20257;-67
2022/05/13 11:31:01;;;;;;;2.57;0.87;;;;;;;;;;4993970;28;20200;-67
2022/05/13 11:33:40;;;;;;;7.53;0.90;;;;;;;;;;5011598;28;20195;-66
2022/05/13 11:36:12;;;;;;;4.23;1.10;;;;;;;;;;5010939;28;20275;-66
2022/05/13 11:38:41;;;;;;;3.03;1.10;;;;;;;;;;4993834;28;20224;-66
2022/05/13 11:41:25;;;;;;;2.33;1.00;;;;;;;;;;5030780;28;20174;-67
2022/05/13 11:44:12;;;;;;;2.87;0.90;;;;;;;;;;5016322;28;20209;-66
2022/05/13 11:46:44;;;;;;;3.90;0.90;;;;;;;;;;5013475;28;21007;-66
2022/05/13 11:49:13;;;;;;;5.63;1.30;;;;;;;;;;5030738;28;20243;-66
2022/05/13 11:52:18;;;;;;;3.37;1.07;;;;;;;;;;5030541;28;20179;-67
2022/05/13 11:54:45;;;;;;;2.87;0.90;;;;;;;;;;5009475;28;20283;-67
2022/05/13 11:57:24;;;;;;;5.40;1.27;;;;;;;;;;5013337;28;20285;-66
2022/05/13 11:59:52;;;;;;;3.37;0.97;;;;;;;;;;5030165;28;20223;-66
2022/05/13 12:02:20;;;;;;;3.97;1.00;;;;;;;;;;5030561;28;20198;-66
2022/05/13 12:05:02;;;;;;;2.67;0.87;;;;;;;;;;5030446;28;20192;-66
2022/05/13 12:07:30;;;;;;;4.10;1.20;;;;;;;;;;5012476;28;20200;-67
2022/05/13 12:09:57;;;;;;;3.63;0.93;;;;;;;;;;5012571;28;20630;-67
2022/05/13 12:12:44;;;;;;;2.80;0.83;;;;;;;;;;5013135;28;20280;-67
2022/05/13 12:15:18;;;;;;;3.40;0.87;;;;;;;;;;5030083;28;21046;-67
2022/05/13 12:17:53;;;;;;;3.77;1.00;;;;;;;;;;5012859;28;20202;-67
2022/05/13 12:20:35;;;;;;;1.77;0.80;;;;;;;;;;5030192;28;20199;-67
2022/05/13 12:23:11;;;;;;;1.57;0.90;;;;;;;;;;5012254;28;20192;-66
2022/05/13 12:25:38;;;;;;;2.13;1.17;;;;;;;;;;5012511;28;20215;-66
2022/05/13 12:28:10;;;;;;;1.90;1.00;;;;;;;;;;5030090;28;20179;-67
2022/05/13 12:30:39;;;;;;;4.47;1.10;;;;;;;;;;5030178;28;20613;-67
2022/05/13 12:33:29;;;;;;;3.40;0.97;;;;;;;;;;5029688;28;21040;-67
2022/05/13 12:39:05;;;;;;;4.63;1.40;;;;;;;;;;5000930;28;20219;-67
2022/05/13 12:41:38;;;;;;;4.23;1.10;;;;;;;;;;5032053;28;20245;-67
2022/05/13 12:44:08;;;;;;;4.13;0.93;;;;;;;;;;5032263;28;20576;-66
2022/05/13 12:46:41;;;;;;;4.97;1.10;;;;;;;;;;5049868;28;20183;-67
2022/05/13 12:49:20;;;;;;;29.73;15.53;;;;;;;;;;5049315;28;20218;-67
2022/05/13 12:51:47;;;;;;;6.83;1.43;;;;;;;;;;5049271;28;20245;-67
2022/05/13 12:54:18;;;;;;;4.90;1.10;;;;;;;;;;5049841;28;20658;-66
2022/05/13 12:56:53;;;;;;;3.17;1.03;;;;;;;;;;5031540;28;20676;-67
2022/05/13 12:59:38;;;;;;;3.33;1.00;;;;;;;;;;5049644;28;20202;-67
2022/05/13 13:02:06;;;;;;;4.60;1.37;;;;;;;;;;5049144;28;20256;-67
2022/05/13 13:04:35;;;;;;;6.03;1.40;;;;;;;;;;5031316;28;20205;-67
2022/05/13 13:07:08;;;;;;;4.57;1.10;;;;;;;;;;5048654;28;20194;-67
2022/05/13 13:09:53;;;;;;;4.53;1.37;;;;;;;;;;5049005;28;20249;-67
2022/05/13 13:12:22;;;;;;;3.50;1.13;;;;;;;;;;5049199;28;21115;-67
2022/05/13 13:15:19;;;;;;;5.80;1.27;;;;;;;;;;5034169;28;20187;-66
2022/05/13 13:17:49;;;;;;;4.17;1.20;;;;;;;;;;5030876;28;20217;-67
2022/05/13 13:20:43;;;;;;;42.60;3.53;;;;;;;;;;5048685;28;20655;-67
2022/05/13 13:23:10;;;;;;;5.23;1.50;;;;;;;;;;5048486;28;20205;-67
2022/05/13 13:25:38;;;;;;;4.20;1.20;;;;;;;;;;5048794;28;20183;-68
2022/05/13 13:28:06;;;;;;;3.40;1.20;;;;;;;;;;5048927;28;20186;-67
2022/05/13 13:30:41;;;;;;;4.00;1.33;;;;;;;;;;5031385;28;20884;-67
2022/05/13 13:33:08;;;;;;;3.83;1.20;;;;;;;;;;5048283;28;20262;-68
2022/05/13 13:35:36;;;;;;;3.97;1.17;;;;;;;;;;5048800;28;20277;-68
2022/05/13 13:38:04;;;;;;;3.77;1.10;;;;;;;;;;5047942;28;20555;-67
2022/05/13 13:40:35;;;;;;;5.57;1.60;;;;;;;;;;5033393;28;20214;-67
2022/05/13 13:43:15;;;;;;;4.20;1.50;;;;;;;;;;5028170;28;20213;-68
2022/05/13 13:45:43;;;;;;;4.63;1.00;;;;;;;;;;5010477;28;20195;-68
2022/05/13 13:48:16;;;;;;;5.87;1.30;;;;;;;;;;5028720;28;20590;-67
2022/05/13 13:50:47;;;;;;;4.93;1.27;;;;;;;;;;5010479;28;20211;-68
2022/05/13 13:53:17;;;;;;;5.00;1.30;;;;;;;;;;5028453;28;20269;-67
2022/05/13 13:55:49;;;;;;;3.37;1.40;;;;;;;;;;5027151;28;20563;-67
2022/05/13 13:58:22;;;;;;;4.20;1.13;;;;;;;;;;5028364;28;20249;-67
2022/05/13 14:00:49;;;;;;;2.40;1.20;;;;;;;;;;5028332;28;20789;-67
2022/05/13 14:03:21;;;;;;;17.47;1.73;;;;;;;;;;5027159;28;20304;-67
2022/05/13 14:05:58;;;;;;;5.10;0.97;;;;;;;;;;5028261;28;20210;-67
2022/05/13 14:08:26;;;;;;;3.57;1.20;;;;;;;;;;5028268;28;20191;-67
2022/05/13 14:10:57;;;;;;;6.23;1.20;;;;;;;;;;5027959;28;20640;-67
2022/05/13 14:13:28;;;;;;;3.63;0.90;;;;;;;;;;5027893;28;20198;-67
2022/05/13 14:16:09;;;;;;;2.77;1.20;;;;;;;;;;5028037;28;20198;-67
2022/05/13 14:18:36;;;;;;;2.53;1.03;;;;;;;;;;5028299;28;20190;-67
2022/05/13 14:21:10;;;;;;;4.07;1.07;;;;;;;;;;5025984;28;20246;-67
2022/05/13 14:23:38;;;;;;;1.93;1.17;;;;;;;;;;5029065;28;20699;-68
2022/05/13 14:26:06;;;;;;;2.57;1.10;;;;;;;;;;5027947;28;20681;-67
2022/05/13 14:28:34;;;;;;;3.13;1.37;;;;;;;;;;5036006;28;20187;-67
2022/05/13 14:31:07;;;;;;;4.40;1.20;;;;;;;;;;5042221;28;20234;-67
2022/05/13 14:33:40;;;;;;;3.57;1.33;;;;;;;;;;5027534;28;20524;-68
2022/05/13 14:36:08;;;;;;;4.17;1.20;;;;;;;;;;5027926;28;20570;-68
2022/05/13 14:39:48;;;;;;;3.97;1.73;;;;;;;;;;5027787;28;20279;-68
2022/05/13 14:41:24;;;;;;;5.10;1.23;;;;;;;;;;5007971;28;20227;-68
2022/05/13 14:43:51;;;;;;;1.83;1.00;;;;;;;;;;5006701;28;20184;-68
2022/05/13 14:46:23;;;;;;;12.03;1.83;;;;;;;;;;5008284;28;20216;-68
2022/05/13 14:48:50;;;;;;;4.90;1.10;;;;;;;;;;5007826;28;20203;-68
2022/05/13 14:51:20;;;;;;;5.80;1.37;;;;;;;;;;5008334;28;20270;-68
2022/05/13 14:53:47;;;;;;;2.93;0.80;;;;;;;;;;5008012;28;20206;-68
2022/05/13 14:56:14;;;;;;;4.00;0.80;;;;;;;;;;5010853;28;20188;-68
2022/05/13 14:59:00;;;;;;;7.20;1.80;;;;;;;;;;5011473;28;20188;-68
2022/05/13 15:01:30;;;;;;;3.03;1.30;;;;;;;;;;4997816;28;20237;-69
2022/05/13 15:03:59;;;;;;;4.87;1.40;;;;;;;;;;5009698;28;20198;-68
2022/05/13 15:06:27;;;;;;;5.43;1.20;;;;;;;;;;5029884;28;20249;-67
2022/05/13 15:09:00;;;;;;;6.23;1.20;;;;;;;;;;5030630;28;20282;-67
2022/05/13 15:11:45;;;;;;;4.17;1.00;;;;;;;;;;5031160;28;20809;-67
2022/05/13 15:14:12;;;;;;;5.70;1.20;;;;;;;;;;5031196;28;20237;-67
2022/05/13 15:16:57;;;;;;;11.33;1.77;;;;;;;;;;5030544;28;20167;-67
2022/05/13 15:19:29;;;;;;;3.40;1.20;;;;;;;;;;5030333;28;20191;-67
2022/05/13 15:22:03;;;;;;;7.37;1.67;;;;;;;;;;5030412;28;20555;-66
2022/05/13 15:24:30;;;;;;;4.50;1.33;;;;;;;;;;5030768;28;20183;-67
2022/05/13 15:27:18;;;;;;;10.10;1.60;;;;;;;;;;5030911;28;20258;-67
2022/05/13 15:29:47;;;;;;;4.50;1.40;;;;;;;;;;5029934;28;20180;-67
2022/05/13 15:32:33;;;;;;;3.30;1.30;;;;;;;;;;5030071;28;20176;-67
2022/05/13 15:35:00;;;;;;;4.23;1.10;;;;;;;;;;5028958;28;20199;-67
2022/05/13 15:37:45;;;;;;;3.97;1.47;;;;;;;;;;5029760;28;20215;-66
2022/05/13 15:40:13;;;;;;;4.07;1.30;;;;;;;;;;5029021;28;20184;-66